Time;durP1;ratioP1;P1;durP2;ratioP2;P2;SDS_P1;SDS_P2;PMS_P1;PMS_P2;Temp;Humidity;BMP_temperature;BMP_pressure;BME280_temperature;BME280_humidity;BME280_pressure;Samples;Min_cycle;Max_cycle;Signal;HPM_P1;HPM_P2
2023/08/31 00:02:11;;;;;;;6.65;5.93;;;;;;;12.88;95.53;100701.75;5101788;28;20107;-64
2023/08/31 00:04:36;;;;;;;6.85;5.75;;;;;;;12.85;95.85;100704.63;5093645;28;20112;-64
2023/08/31 00:07:02;;;;;;;6.45;5.93;;;;;;;12.91;95.54;100711.31;5094074;28;20039;-65
2023/08/31 00:09:29;;;;;;;6.78;6.10;;;;;;;12.91;95.20;100717.53;5108992;28;20031;-64
2023/08/31 00:11:56;;;;;;;6.85;6.18;;;;;;;12.95;95.62;100705.63;5131844;27;20019;-65
2023/08/31 00:14:22;;;;;;;7.47;6.13;;;;;;;12.86;95.42;100714.34;5108540;28;20039;-64
2023/08/31 00:16:50;;;;;;;6.90;6.15;;;;;;;12.85;96.36;100703.75;5113955;27;20090;-64
2023/08/31 00:19:16;;;;;;;5.82;5.32;;;;;;;12.74;95.63;100715.25;5075507;28;20379;-65
2023/08/31 00:21:42;;;;;;;6.93;6.32;;;;;;;12.87;95.70;100716.03;5107926;27;20040;-64
2023/08/31 00:24:11;;;;;;;6.82;6.22;;;;;;;12.78;95.78;100714.06;5096220;28;20015;-64
2023/08/31 00:26:40;;;;;;;10.32;7.13;;;;;;;12.72;96.61;100709.19;5114110;28;20395;-64
2023/08/31 00:29:06;;;;;;;8.27;7.47;;;;;;;12.70;96.46;100705.75;5095916;28;20496;-64
2023/08/31 00:31:32;;;;;;;6.82;6.15;;;;;;;12.64;96.44;100699.06;5122877;27;20477;-65
2023/08/31 00:33:57;;;;;;;7.72;6.70;;;;;;;12.58;96.48;100709.34;5115303;27;20084;-65
2023/08/31 00:36:23;;;;;;;6.95;6.10;;;;;;;12.60;97.03;100707.41;5115448;27;20466;-65
2023/08/31 00:38:49;;;;;;;7.88;7.18;;;;;;;12.50;97.13;100702.78;5099214;27;20027;-65
2023/08/31 00:41:14;;;;;;;7.22;6.57;;;;;;;12.64;97.22;100708.88;5114425;27;20028;-65
2023/08/31 00:43:40;;;;;;;7.45;6.72;;;;;;;12.55;97.09;100709.56;5134126;27;20138;-65
2023/08/31 00:46:06;;;;;;;7.05;6.35;;;;;;;12.46;96.87;100705.75;5134287;27;20027;-65
2023/08/31 00:48:32;;;;;;;6.88;6.28;;;;;;;12.44;97.19;100716.56;5134192;27;20039;-65
2023/08/31 00:50:58;;;;;;;7.40;6.65;;;;;;;12.46;97.50;100709.28;5132904;27;20031;-65
2023/08/31 00:53:23;;;;;;;7.38;6.85;;;;;;;12.42;97.48;100714.97;5132441;27;20031;-64
2023/08/31 00:55:49;;;;;;;6.45;4.50;;;;;;;12.59;96.63;100709.25;5134177;27;20497;-64
2023/08/31 00:58:14;;;;;;;7.40;6.70;;;;;;;12.31;97.76;100706.88;5134168;27;20035;-65
2023/08/31 01:00:56;;;;;;;6.85;4.45;;;;;;;12.49;96.89;100716.19;5133979;27;20102;-64
2023/08/31 01:03:52;;;;;;;6.88;6.28;;;;;;;12.26;98.62;100704.53;5132177;27;20023;-64
2023/08/31 01:06:40;;;;;;;8.77;7.60;;;;;;;12.35;98.34;100703.03;5111980;27;20030;-64
2023/08/31 01:09:19;;;;;;;11.90;6.82;;;;;;;12.26;98.61;100707.19;5115392;27;20324;-64
2023/08/31 01:12:02;;;;;;;4.60;4.20;;;;;;;12.42;97.40;100707.81;5133924;27;20015;-64
2023/08/31 01:14:36;;;;;;;7.38;6.65;;;;;;;12.15;99.22;100708.00;5123445;27;20103;-65
2023/08/31 01:17:03;;;;;;;7.50;6.75;;;;;;;12.05;98.94;100706.94;5094759;28;20023;-65
2023/08/31 01:19:51;;;;;;;8.10;7.40;;;;;;;12.15;99.50;100704.50;5112579;28;20077;-65
2023/08/31 01:22:40;;;;;;;7.60;6.90;;;;;;;12.12;99.98;100694.00;5113189;28;20027;-65
2023/08/31 01:25:09;;;;;;;7.47;6.82;;;;;;;12.00;99.06;100695.75;5114575;27;20028;-64
2023/08/31 01:27:37;;;;;;;8.57;7.80;;;;;;;12.02;99.62;100689.34;5113136;28;20496;-64
2023/08/31 01:30:04;;;;;;;5.60;4.93;;;;;;;12.20;99.03;100702.31;5112557;28;20080;-65
2023/08/31 01:32:31;;;;;;;8.13;7.50;;;;;;;12.00;99.82;100709.06;5112848;28;20375;-65
2023/08/31 01:35:01;;;;;;;8.80;7.90;;;;;;;12.05;99.75;100709.59;5113398;27;20554;-64
2023/08/31 01:37:40;;;;;;;9.20;8.25;;;;;;;12.02;100.00;100708.00;5112996;28;20019;-65
2023/08/31 01:40:14;;;;;;;4.97;4.28;;;;;;;12.21;98.69;100717.38;5079137;27;20035;-65
2023/08/31 01:42:44;;;;;;;11.00;8.45;;;;;;;12.01;100.00;100711.66;5112389;28;20062;-65
2023/08/31 01:45:13;;;;;;;8.95;8.15;;;;;;;12.04;100.00;100718.56;5118389;27;20106;-65
2023/08/31 01:47:39;;;;;;;9.98;8.77;;;;;;;11.91;100.00;100707.06;5133218;27;20027;-64
2023/08/31 01:50:05;;;;;;;8.73;7.90;;;;;;;11.90;100.00;100718.69;5132526;27;20011;-65
2023/08/31 01:52:32;;;;;;;8.88;8.13;;;;;;;11.90;100.00;100708.03;5133161;27;20015;-65
2023/08/31 01:54:58;;;;;;;7.88;5.30;;;;;;;12.11;100.00;100718.97;5132065;27;20050;-65
2023/08/31 01:57:23;;;;;;;9.55;8.52;;;;;;;11.90;100.00;100703.56;5131749;27;20050;-64
2023/08/31 01:59:48;;;;;;;7.03;5.70;;;;;;;12.17;99.73;100718.53;5132780;27;20019;-65
2023/08/31 02:02:14;;;;;;;9.10;8.30;;;;;;;12.00;100.00;100714.41;5133130;27;20015;-65
2023/08/31 02:04:39;;;;;;;10.65;9.65;;;;;;;11.92;100.00;100706.97;5132432;27;20023;-64
2023/08/31 02:07:05;;;;;;;11.10;8.90;;;;;;;11.92;100.00;100712.31;5131253;27;20019;-65
2023/08/31 02:09:30;;;;;;;10.70;9.43;;;;;;;11.92;100.00;100712.31;5132811;27;20441;-65
2023/08/31 02:11:56;;;;;;;7.13;5.40;;;;;;;12.19;100.00;100724.63;5114601;28;20537;-65
2023/08/31 02:14:22;;;;;;;9.95;8.90;;;;;;;12.11;100.00;100732.31;5125452;27;20043;-65
2023/08/31 02:16:47;;;;;;;10.25;5.78;;;;;;;12.30;100.00;100731.84;5113400;27;20027;-65
2023/08/31 02:19:13;;;;;;;12.40;9.48;;;;;;;12.07;100.00;100722.84;5112427;28;20045;-65
2023/08/31 02:21:38;;;;;;;7.65;5.72;;;;;;;12.30;100.00;100731.84;5111670;28;20024;-64
2023/08/31 02:24:04;;;;;;;10.23;9.25;;;;;;;12.17;100.00;100726.53;5093998;28;20024;-65
2023/08/31 02:26:30;;;;;;;9.30;8.50;;;;;;;12.33;100.00;100724.47;5100135;28;20077;-65
2023/08/31 02:29:00;;;;;;;9.77;8.88;;;;;;;12.18;100.00;100729.09;5079848;28;20367;-65
2023/08/31 02:31:25;;;;;;;10.05;9.13;;;;;;;12.16;100.00;100719.50;5080252;27;20023;-65
2023/08/31 02:33:52;;;;;;;9.55;8.73;;;;;;;12.09;100.00;100723.56;5116318;28;20026;-65
2023/08/31 02:36:20;;;;;;;5.80;5.03;;;;;;;12.31;100.00;100714.88;5097678;28;20493;-64
2023/08/31 02:38:46;;;;;;;10.52;9.52;;;;;;;12.13;100.00;100714.41;5117669;27;20027;-65
2023/08/31 02:41:12;;;;;;;11.65;10.52;;;;;;;12.18;100.00;100717.59;5098329;28;20019;-65
2023/08/31 02:43:39;;;;;;;14.32;11.90;;;;;;;12.01;100.00;100724.97;5104675;28;20423;-65
2023/08/31 02:46:04;;;;;;;16.63;13.05;;;;;;;11.97;100.00;100727.94;5095750;28;20043;-65
2023/08/31 02:48:30;;;;;;;15.55;8.80;;;;;;;12.09;100.00;100729.78;5109300;27;20058;-65
2023/08/31 02:51:00;;;;;;;20.65;18.27;;;;;;;11.85;100.00;100728.78;5136024;27;20111;-65
2023/08/31 02:53:27;;;;;;;20.92;18.73;;;;;;;11.73;100.00;100718.03;5136504;27;20015;-65
2023/08/31 02:55:52;;;;;;;22.52;20.23;;;;;;;11.76;100.00;100724.97;5117961;27;20477;-65
2023/08/31 02:58:19;;;;;;;23.20;20.75;;;;;;;11.72;100.00;100726.13;5122200;27;20019;-65
2023/08/31 03:00:47;;;;;;;17.08;11.18;;;;;;;11.90;100.00;100724.88;5116071;27;20019;-65
2023/08/31 03:03:14;;;;;;;15.77;11.25;;;;;;;11.91;100.00;100721.28;5115721;28;20386;-65
2023/08/31 03:05:39;;;;;;;23.50;21.10;;;;;;;11.68;100.00;100724.66;5115857;27;20020;-65
2023/08/31 03:08:05;;;;;;;23.75;20.20;;;;;;;11.68;100.00;100724.66;5115781;28;20085;-66
2023/08/31 03:10:33;;;;;;;21.58;19.48;;;;;;;11.59;100.00;100713.69;5116663;27;20436;-65
2023/08/31 03:12:58;;;;;;;14.18;9.43;;;;;;;11.80;100.00;100724.66;5097226;28;20019;-65
2023/08/31 03:15:24;;;;;;;13.15;10.18;;;;;;;11.79;100.00;100727.41;5115094;28;20108;-65
2023/08/31 03:17:51;;;;;;;19.58;17.88;;;;;;;11.68;100.00;100724.66;5097190;28;20075;-66
2023/08/31 03:20:19;;;;;;;18.88;17.15;;;;;;;11.70;100.00;100725.38;5097889;28;20418;-64
2023/08/31 03:22:45;;;;;;;11.13;9.05;;;;;;;11.77;100.00;100732.00;5097931;28;20023;-64
2023/08/31 03:25:10;;;;;;;17.20;15.55;;;;;;;11.55;100.00;100725.50;5115448;28;20362;-64
2023/08/31 03:27:38;;;;;;;18.83;17.02;;;;;;;11.49;100.00;100725.91;5114972;28;20086;-65
2023/08/31 03:30:04;;;;;;;13.77;9.68;;;;;;;11.68;100.00;100733.50;5109031;27;20020;-65
2023/08/31 03:32:29;;;;;;;19.05;17.10;;;;;;;11.53;100.00;100738.09;5082975;28;20039;-64
2023/08/31 03:34:55;;;;;;;19.70;17.75;;;;;;;11.50;100.00;100732.97;5083088;28;20073;-65
2023/08/31 03:37:21;;;;;;;22.17;20.27;;;;;;;11.49;100.00;100731.25;5106616;28;20032;-64
2023/08/31 03:39:52;;;;;;;20.88;18.98;;;;;;;11.43;100.00;100731.66;5111049;27;20471;-65
2023/08/31 03:42:17;;;;;;;21.92;19.92;;;;;;;11.50;100.00;100732.97;5125926;27;20020;-65
2023/08/31 03:44:43;;;;;;;23.42;21.17;;;;;;;11.49;100.00;100733.06;5134396;27;20034;-65
2023/08/31 03:47:08;;;;;;;25.63;23.20;;;;;;;11.42;100.00;100724.66;5135691;27;20110;-65
2023/08/31 03:49:34;;;;;;;22.45;12.70;;;;;;;11.58;100.00;100719.94;5135082;27;20031;-64
2023/08/31 03:52:00;;;;;;;20.40;13.85;;;;;;;11.57;100.00;100714.75;5133784;27;20446;-65
2023/08/31 03:54:26;;;;;;;19.05;13.27;;;;;;;11.54;100.00;100715.81;5116870;27;20033;-65
2023/08/31 03:56:51;;;;;;;26.65;23.90;;;;;;;11.51;100.00;100708.03;5116091;27;20039;-65
2023/08/31 03:59:17;;;;;;;20.70;13.18;;;;;;;11.54;100.00;100713.13;5135290;27;20030;-64
2023/08/31 04:01:42;;;;;;;26.00;14.15;;;;;;;11.56;100.00;100718.38;5116033;27;20053;-65
2023/08/31 04:04:07;;;;;;;27.65;24.98;;;;;;;11.34;100.00;100713.66;5134634;27;20049;-65
2023/08/31 04:06:33;;;;;;;25.95;23.35;;;;;;;11.36;100.00;100728.56;5134864;27;20034;-64
2023/08/31 04:08:58;;;;;;;21.85;12.65;;;;;;;11.51;100.00;100732.00;5133465;27;20023;-65
2023/08/31 04:11:26;;;;;;;16.45;12.48;;;;;;;11.52;100.00;100724.84;5134887;27;20453;-65
2023/08/31 04:13:51;;;;;;;26.85;23.92;;;;;;;11.42;100.00;100734.44;5130776;27;20407;-65
2023/08/31 04:16:16;;;;;;;23.30;21.20;;;;;;;11.45;100.00;100737.75;5114209;28;20060;-64
2023/08/31 04:18:42;;;;;;;18.17;11.20;;;;;;;11.55;100.00;100741.47;5114577;28;20034;-65
2023/08/31 04:21:08;;;;;;;17.38;11.68;;;;;;;11.52;100.00;100746.16;5115037;27;20430;-65
2023/08/31 04:23:34;;;;;;;22.00;19.75;;;;;;;11.38;100.00;100739.09;5114355;28;20030;-65
2023/08/31 04:26:00;;;;;;;21.15;18.90;;;;;;;11.38;100.00;100733.78;5114009;28;20050;-65
2023/08/31 04:28:26;;;;;;;21.08;19.05;;;;;;;11.36;100.00;100743.72;5114247;28;20031;-65
2023/08/31 04:30:53;;;;;;;11.45;8.40;;;;;;;11.47;100.00;100754.47;5115625;27;20050;-65
2023/08/31 04:33:19;;;;;;;13.98;10.38;;;;;;;11.46;100.00;100744.78;5114321;28;20028;-65
2023/08/31 04:35:44;;;;;;;13.40;9.25;;;;;;;11.54;100.00;100758.41;5095525;28;20027;-65
2023/08/31 04:38:10;;;;;;;17.48;15.80;;;;;;;11.40;100.00;100753.19;5114223;28;20042;-65
2023/08/31 04:40:38;;;;;;;15.30;13.77;;;;;;;11.41;100.00;100756.69;5114897;27;20120;-65
2023/08/31 04:43:04;;;;;;;16.17;14.55;;;;;;;11.38;100.00;100752.41;5113722;28;20423;-65
2023/08/31 04:45:30;;;;;;;15.63;14.07;;;;;;;11.33;100.00;100751.91;5113884;28;20041;-65
2023/08/31 04:47:56;;;;;;;12.30;7.78;;;;;;;11.45;100.00;100761.72;5114485;27;20028;-65
2023/08/31 04:50:21;;;;;;;15.55;13.85;;;;;;;11.33;100.00;100758.06;5095130;28;20493;-64
2023/08/31 04:52:52;;;;;;;8.90;6.65;;;;;;;11.49;100.00;100768.53;5096432;28;20027;-65
2023/08/31 04:55:17;;;;;;;9.60;7.45;;;;;;;11.45;100.00;100760.88;5113002;28;20111;-65
2023/08/31 04:57:42;;;;;;;12.18;11.18;;;;;;;11.32;100.00;100752.84;5113706;28;20514;-65
2023/08/31 05:00:09;;;;;;;12.73;11.48;;;;;;;11.46;100.00;100768.75;5113420;28;20054;-65
2023/08/31 05:02:34;;;;;;;7.70;6.50;;;;;;;11.49;100.00;100770.34;5096258;28;20489;-65
2023/08/31 05:05:00;;;;;;;12.98;11.45;;;;;;;11.35;100.00;100771.28;5095172;28;20027;-65
2023/08/31 05:07:25;;;;;;;12.40;11.20;;;;;;;11.34;100.00;100775.75;5113170;28;20081;-65
2023/08/31 05:09:50;;;;;;;9.00;6.20;;;;;;;11.48;100.00;100777.47;5095023;28;20473;-65
2023/08/31 05:12:17;;;;;;;8.10;6.05;;;;;;;11.54;100.00;100778.88;5100736;27;20016;-65
2023/08/31 05:14:43;;;;;;;11.60;10.40;;;;;;;11.41;100.00;100776.19;5123103;27;20027;-65
2023/08/31 05:17:08;;;;;;;11.93;10.27;;;;;;;11.39;100.00;100788.75;5113051;28;20047;-65
2023/08/31 05:19:34;;;;;;;9.95;6.07;;;;;;;11.52;100.00;100792.28;5094500;28;20815;-65
2023/08/31 05:21:59;;;;;;;7.63;5.65;;;;;;;11.51;100.00;100793.25;5113494;28;20099;-65
2023/08/31 05:24:24;;;;;;;11.40;9.65;;;;;;;11.34;100.00;100794.38;5113998;27;20024;-65
2023/08/31 05:26:50;;;;;;;7.60;5.38;;;;;;;11.47;100.00;100797.09;5112941;28;20071;-65
2023/08/31 05:29:16;;;;;;;8.27;5.95;;;;;;;11.49;100.00;100807.63;5113167;28;20024;-65
2023/08/31 05:31:44;;;;;;;10.68;9.02;;;;;;;11.34;100.00;100813.03;5094860;28;20067;-65
2023/08/31 05:34:10;;;;;;;9.02;5.18;;;;;;;11.46;100.00;100806.03;5095737;28;20482;-65
2023/08/31 05:36:35;;;;;;;12.20;9.40;;;;;;;11.41;100.00;100794.81;5112143;27;20059;-66
2023/08/31 05:39:01;;;;;;;8.80;5.85;;;;;;;11.50;100.00;100809.31;5132158;27;20049;-65
2023/08/31 05:41:27;;;;;;;10.15;9.27;;;;;;;11.39;100.00;100817.22;5133057;27;20355;-65
2023/08/31 05:43:53;;;;;;;14.18;5.55;;;;;;;11.48;100.00;100825.44;5114379;27;20027;-64
2023/08/31 05:46:19;;;;;;;12.90;9.57;;;;;;;11.39;100.00;100823.38;5111733;27;20031;-65
2023/08/31 05:48:44;;;;;;;11.38;10.27;;;;;;;11.37;100.00;100823.47;5112943;28;20047;-65
2023/08/31 05:51:10;;;;;;;7.47;5.20;;;;;;;11.52;100.00;100829.56;5093811;28;20069;-64
2023/08/31 05:53:35;;;;;;;7.53;5.90;;;;;;;11.56;100.00;100823.09;5112786;28;20032;-64
2023/08/31 05:56:07;;;;;;;8.32;5.75;;;;;;;11.59;100.00;100819.38;5113879;27;20027;-64
2023/08/31 05:58:36;;;;;;;8.00;5.63;;;;;;;11.63;100.00;100823.53;5112753;28;20106;-65
2023/08/31 06:01:05;;;;;;;11.38;10.10;;;;;;;11.60;100.00;100823.75;5112331;28;20023;-65
2023/08/31 06:03:30;;;;;;;8.95;5.68;;;;;;;11.61;100.00;100814.78;5111272;28;20602;-64
2023/08/31 06:05:57;;;;;;;10.95;9.90;;;;;;;11.60;100.00;100827.25;5103422;28;20046;-65
2023/08/31 06:08:22;;;;;;;11.18;10.25;;;;;;;11.64;100.00;100829.72;5106000;28;20114;-65
2023/08/31 06:10:48;;;;;;;12.00;9.90;;;;;;;11.66;100.00;100828.66;5086076;28;20023;-64
2023/08/31 06:13:13;;;;;;;10.90;9.80;;;;;;;11.71;100.00;100823.88;5112955;28;20084;-64
2023/08/31 06:15:39;;;;;;;6.13;5.10;;;;;;;11.74;100.00;100814.81;5111805;28;20742;-64
2023/08/31 06:18:05;;;;;;;12.50;6.03;;;;;;;11.86;100.00;100835.31;5113313;28;20106;-64
2023/08/31 06:20:31;;;;;;;12.95;5.30;;;;;;;11.91;100.00;100838.53;5093263;28;20104;-65
2023/08/31 06:22:56;;;;;;;6.22;5.03;;;;;;;12.01;100.00;100833.41;5112157;28;20098;-65
2023/08/31 06:25:22;;;;;;;11.43;10.25;;;;;;;11.98;100.00;100842.47;5112139;28;20033;-64
2023/08/31 06:27:48;;;;;;;11.43;9.63;;;;;;;12.04;100.00;100847.38;5113384;28;20023;-64
2023/08/31 06:30:16;;;;;;;7.63;6.22;;;;;;;12.14;100.00;100847.59;5108315;28;20470;-65
2023/08/31 06:32:46;;;;;;;15.82;9.98;;;;;;;12.18;100.00;100850.91;5104303;28;20485;-65
2023/08/31 06:35:12;;;;;;;11.60;9.63;;;;;;;12.18;100.00;100848.25;5102043;28;20054;-65
2023/08/31 06:37:39;;;;;;;11.07;5.90;;;;;;;12.32;100.00;100849.94;5127976;28;20076;-64
2023/08/31 06:40:08;;;;;;;11.77;9.55;;;;;;;12.33;100.00;100847.16;5106785;28;20077;-65
2023/08/31 06:42:35;;;;;;;12.13;9.45;;;;;;;12.39;100.00;100845.88;5108097;28;20032;-64
2023/08/31 06:45:00;;;;;;;8.13;5.70;;;;;;;12.56;100.00;100850.00;5089735;28;20031;-64
2023/08/31 06:47:26;;;;;;;11.57;9.98;;;;;;;12.75;100.00;100854.88;5111849;28;20381;-64
2023/08/31 06:49:52;;;;;;;11.38;9.50;;;;;;;12.82;100.00;100859.66;5109990;28;20028;-64
2023/08/31 06:52:18;;;;;;;16.90;10.43;;;;;;;12.94;100.00;100861.44;5108021;28;20016;-65
2023/08/31 06:54:45;;;;;;;12.23;6.15;;;;;;;13.16;100.00;100866.06;5056607;28;20100;-65
2023/08/31 06:57:13;;;;;;;13.57;9.65;;;;;;;13.20;100.00;100856.00;5078879;28;20482;-65
2023/08/31 06:59:39;;;;;;;10.52;9.27;;;;;;;13.42;100.00;100867.81;5093341;28;20019;-65
2023/08/31 07:02:05;;;;;;;12.23;9.68;;;;;;;13.49;100.00;100875.22;5093264;28;20024;-65
2023/08/31 07:04:30;;;;;;;16.38;9.60;;;;;;;13.57;100.00;100872.84;5111177;28;20094;-65
2023/08/31 07:06:55;;;;;;;10.85;8.55;;;;;;;13.67;100.00;100880.16;5111628;28;20382;-65
2023/08/31 07:09:21;;;;;;;12.80;9.98;;;;;;;13.76;100.00;100876.78;5112819;28;20227;-65
2023/08/31 07:11:46;;;;;;;13.55;9.38;;;;;;;13.80;100.00;100870.25;5112108;28;20030;-65
2023/08/31 07:14:12;;;;;;;12.02;9.02;;;;;;;13.99;100.00;100877.72;5111761;28;20035;-65
2023/08/31 07:16:39;;;;;;;11.95;8.90;;;;;;;14.12;100.00;100883.84;5111442;28;20062;-65
2023/08/31 07:19:05;;;;;;;10.27;8.88;;;;;;;14.23;100.00;100885.66;5115577;27;20028;-65
2023/08/31 07:21:30;;;;;;;10.48;9.38;;;;;;;14.43;100.00;100879.59;5096543;28;20038;-65
2023/08/31 07:23:58;;;;;;;13.43;9.18;;;;;;;14.57;100.00;100881.22;5097048;28;20034;-65
2023/08/31 07:26:24;;;;;;;10.48;8.43;;;;;;;14.68;100.00;100888.41;5115301;28;20047;-65
2023/08/31 07:28:52;;;;;;;11.18;9.60;;;;;;;14.82;100.00;100880.09;5116357;27;20112;-65
2023/08/31 07:31:17;;;;;;;13.98;9.13;;;;;;;14.78;100.00;100881.34;5096773;28;20153;-65
2023/08/31 07:33:43;;;;;;;11.15;9.00;;;;;;;14.75;99.95;100885.09;5096845;28;20122;-65
2023/08/31 07:36:08;;;;;;;11.57;8.43;;;;;;;14.67;99.61;100882.19;5096162;28;20030;-65
2023/08/31 07:38:34;;;;;;;9.95;8.70;;;;;;;14.69;99.88;100877.56;5115246;28;20018;-65
2023/08/31 07:41:00;;;;;;;11.55;8.68;;;;;;;14.72;100.00;100884.50;5097745;28;20038;-66
2023/08/31 07:43:26;;;;;;;15.30;9.02;;;;;;;14.81;100.00;100890.94;5115193;28;20356;-65
2023/08/31 07:45:53;;;;;;;12.25;8.73;;;;;;;14.87;100.00;100882.41;5096761;28;20180;-65
2023/08/31 07:48:18;;;;;;;11.27;8.02;;;;;;;15.02;100.00;100893.72;5096486;28;20566;-65
2023/08/31 07:50:45;;;;;;;13.95;8.75;;;;;;;15.07;100.00;100892.38;5115426;27;20114;-65
2023/08/31 07:53:12;;;;;;;11.20;8.55;;;;;;;15.16;99.18;100894.28;5114768;28;20011;-65
2023/08/31 07:55:40;;;;;;;10.07;8.15;;;;;;;15.25;98.07;100883.81;5114736;28;20461;-65
2023/08/31 07:58:06;;;;;;;10.25;8.20;;;;;;;15.40;98.08;100890.56;5114825;28;20023;-65
2023/08/31 08:00:31;;;;;;;13.45;8.85;;;;;;;15.54;97.42;100898.31;5097478;27;20096;-65
2023/08/31 08:02:57;;;;;;;8.60;7.53;;;;;;;15.57;96.59;100892.72;5096329;28;20034;-65
2023/08/31 08:05:22;;;;;;;13.13;7.88;;;;;;;15.72;96.97;100901.34;5114139;28;20034;-65
2023/08/31 08:07:48;;;;;;;10.40;7.93;;;;;;;15.82;96.85;100901.41;5096443;28;20139;-65
2023/08/31 08:10:14;;;;;;;10.20;8.18;;;;;;;15.77;94.69;100909.00;5114675;28;20043;-65
2023/08/31 08:12:43;;;;;;;10.63;7.75;;;;;;;15.84;94.52;100902.13;5115671;27;20016;-66
2023/08/31 08:15:09;;;;;;;10.98;7.65;;;;;;;15.91;95.44;100903.31;5114241;28;20056;-65
2023/08/31 08:17:34;;;;;;;11.13;7.95;;;;;;;16.03;95.10;100902.28;5110244;27;20435;-66
2023/08/31 08:20:00;;;;;;;14.73;9.13;;;;;;;16.11;93.48;100901.59;5098032;28;20036;-66
2023/08/31 08:22:25;;;;;;;9.35;8.43;;;;;;;16.29;93.57;100913.44;5106429;27;20019;-66
2023/08/31 08:24:51;;;;;;;12.93;7.88;;;;;;;16.37;91.52;100911.94;5114242;28;20363;-66
2023/08/31 08:27:18;;;;;;;13.23;8.32;;;;;;;16.48;92.02;100911.88;5114245;28;20079;-66
2023/08/31 08:29:44;;;;;;;10.95;7.55;;;;;;;16.64;90.29;100912.22;5113902;28;20039;-66
2023/08/31 08:32:10;;;;;;;11.20;7.93;;;;;;;16.78;90.37;100911.03;5114830;27;20151;-66
2023/08/31 08:34:35;;;;;;;14.75;8.95;;;;;;;16.96;88.75;100916.63;5113430;28;20587;-66
2023/08/31 08:37:01;;;;;;;12.10;7.75;;;;;;;17.01;89.52;100917.06;5095513;28;20058;-66
2023/08/31 08:39:26;;;;;;;11.52;7.93;;;;;;;17.21;89.02;100923.34;5113707;28;20072;-66
2023/08/31 08:41:54;;;;;;;11.20;8.63;;;;;;;17.36;87.98;100935.41;5113739;28;20069;-66
2023/08/31 08:44:24;;;;;;;11.43;8.13;;;;;;;17.30;85.87;100914.47;5095835;28;20085;-66
2023/08/31 08:46:52;;;;;;;13.82;8.30;;;;;;;17.41;87.56;100933.16;5113227;28;20435;-66
2023/08/31 08:49:23;;;;;;;9.38;7.03;;;;;;;17.48;85.81;100934.28;5113208;28;20102;-66
2023/08/31 08:51:50;;;;;;;12.07;7.30;;;;;;;17.61;85.94;100931.31;5113530;28;20031;-65
2023/08/31 08:54:18;;;;;;;13.45;6.82;;;;;;;17.69;85.83;100919.88;5102652;28;20508;-65
2023/08/31 08:56:43;;;;;;;14.35;6.95;;;;;;;17.64;84.91;100940.94;5093423;28;20035;-65
2023/08/31 08:59:12;;;;;;;13.60;7.57;;;;;;;17.68;87.37;100937.00;5075040;28;20386;-66
2023/08/31 09:01:38;;;;;;;11.63;6.78;;;;;;;17.71;85.48;100940.25;5074498;28;20039;-65
2023/08/31 09:04:04;;;;;;;9.73;6.95;;;;;;;17.71;85.71;100942.09;5060160;28;20024;-65
2023/08/31 09:06:30;;;;;;;8.27;6.40;;;;;;;17.93;83.33;100947.22;5074525;28;20031;-65
2023/08/31 09:08:58;;;;;;;9.38;6.18;;;;;;;17.91;83.55;100941.16;5074648;28;20089;-65
2023/08/31 09:11:25;;;;;;;10.07;5.85;;;;;;;17.95;82.23;100957.03;5092899;28;20031;-65
2023/08/31 09:13:51;;;;;;;11.30;6.22;;;;;;;17.82;81.48;100944.66;5095667;28;20460;-66
2023/08/31 09:16:26;;;;;;;8.07;5.63;;;;;;;17.90;82.04;100952.03;5110905;28;20048;-66
2023/08/31 09:18:54;;;;;;;12.00;6.15;;;;;;;17.88;82.73;100946.81;5113305;28;20043;-65
2023/08/31 09:21:20;;;;;;;11.40;6.15;;;;;;;18.08;82.45;100947.63;5111402;28;20071;-65
2023/08/31 09:24:10;;;;;;;9.50;5.65;;;;;;;18.35;80.65;100957.69;5094982;28;20035;-65
2023/08/31 09:26:38;;;;;;;9.80;5.47;;;;;;;18.31;80.42;100953.56;5111002;28;20390;-66
2023/08/31 09:29:05;;;;;;;9.13;5.30;;;;;;;18.31;77.93;100956.25;5094476;28;20019;-65
2023/08/31 09:31:31;;;;;;;8.48;5.10;;;;;;;18.16;78.47;100963.94;5112994;28;20024;-66
2023/08/31 09:33:56;;;;;;;6.78;5.07;;;;;;;17.97;79.66;100949.63;5094652;28;20397;-65
2023/08/31 09:36:23;;;;;;;13.80;6.25;;;;;;;18.08;80.04;100954.88;5101402;28;20024;-66
2023/08/31 09:38:48;;;;;;;9.63;5.30;;;;;;;18.10;80.32;100955.59;5108030;28;20111;-67
2023/08/31 09:41:16;;;;;;;9.63;5.72;;;;;;;18.28;82.09;100961.09;5092059;28;20554;-66
2023/08/31 09:43:45;;;;;;;10.45;5.50;;;;;;;18.45;78.04;100954.97;5074002;28;20038;-65
2023/08/31 09:46:13;;;;;;;9.40;5.25;;;;;;;18.66;77.54;100951.22;5093058;28;20087;-66
2023/08/31 09:48:40;;;;;;;9.30;5.93;;;;;;;19.10;76.13;100962.28;5092187;28;20036;-66
2023/08/31 09:51:06;;;;;;;7.22;4.72;;;;;;;19.09;74.25;100961.44;5073426;28;20020;-65
2023/08/31 09:53:31;;;;;;;8.23;4.57;;;;;;;19.23;73.14;100962.78;5092150;28;20024;-65
2023/08/31 09:55:57;;;;;;;8.68;4.35;;;;;;;19.14;72.87;100958.28;5091990;28;20109;-65
2023/08/31 09:58:23;;;;;;;7.88;4.40;;;;;;;19.17;70.02;100977.69;5092304;28;20027;-65
2023/08/31 10:00:51;;;;;;;8.10;4.40;;;;;;;19.10;69.67;100975.78;5112377;28;20042;-65
2023/08/31 10:03:17;;;;;;;7.93;5.03;;;;;;;19.04;72.85;100971.81;5094073;28;20027;-65
2023/08/31 10:05:49;;;;;;;7.43;4.65;;;;;;;19.31;69.38;100960.19;5093785;28;20027;-66
2023/08/31 10:08:17;;;;;;;6.50;3.63;;;;;;;19.69;69.42;100964.50;5111051;28;20023;-66
2023/08/31 10:10:42;;;;;;;7.75;4.82;;;;;;;19.46;66.88;100968.59;5094059;28;20478;-65
2023/08/31 10:13:08;;;;;;;8.65;4.18;;;;;;;19.39;67.70;100967.53;5111908;28;20023;-65
2023/08/31 10:15:36;;;;;;;7.38;3.90;;;;;;;19.36;66.37;100965.13;5093716;28;20051;-66
2023/08/31 10:18:03;;;;;;;5.95;3.75;;;;;;;19.48;66.17;100967.47;5094368;28;20421;-65
2023/08/31 10:20:33;;;;;;;7.68;3.83;;;;;;;19.26;66.75;100968.72;5073431;28;20039;-65
2023/08/31 10:23:02;;;;;;;6.40;3.88;;;;;;;19.49;67.58;100968.31;5073696;28;20035;-66
2023/08/31 10:25:48;;;;;;;;;;;;;;;19.91;68.17;100965.03;5092252;28;20048;-66
2023/08/31 10:28:18;;;;;;;5.03;3.55;;;;;;;19.53;64.16;100956.22;5074524;28;19908;-66
2023/08/31 10:31:04;;;;;;;7.70;4.15;;;;;;;19.44;64.75;100971.47;5091823;28;20032;-65
2023/08/31 10:33:34;;;;;;;9.20;4.25;;;;;;;19.35;63.33;100979.59;5073925;28;20024;-66
2023/08/31 10:36:00;;;;;;;7.07;3.17;;;;;;;19.57;62.83;100963.00;5093611;28;20034;-65
2023/08/31 10:38:30;;;;;;;8.25;3.60;;;;;;;19.54;64.72;100966.00;5111973;28;20027;-66
2023/08/31 10:41:08;;;;;;;6.93;3.70;;;;;;;19.50;64.46;100961.91;5093392;28;20051;-66
2023/08/31 10:44:22;;;;;;;5.45;3.63;;;;;;;19.70;63.41;100955.41;5111978;28;20024;-66
2023/08/31 10:46:49;;;;;;;4.80;3.33;;;;;;;19.92;60.41;100953.25;5082766;28;20044;-66
2023/08/31 10:49:17;;;;;;;5.43;3.60;;;;;;;20.08;60.40;100947.97;5093569;28;20114;-66
2023/08/31 10:51:53;;;;;;;6.13;3.27;;;;;;;20.54;60.71;100935.19;5093674;28;20065;-65
2023/08/31 10:54:18;;;;;;;8.15;3.45;;;;;;;20.52;59.84;100939.00;5115213;28;20028;-66
2023/08/31 10:57:08;;;;;;;5.70;2.95;;;;;;;20.86;59.41;100939.94;5104003;28;20055;-66
2023/08/31 10:59:55;;;;;;;4.15;2.97;;;;;;;21.05;58.47;100929.84;5095237;28;20160;-66
2023/08/31 11:02:42;;;;;;;8.30;3.30;;;;;;;21.25;54.66;100933.16;5095705;28;20017;-66
2023/08/31 11:05:12;;;;;;;5.82;2.92;;;;;;;21.13;54.37;100934.47;5110473;28;20031;-66
2023/08/31 11:07:42;;;;;;;6.80;3.25;;;;;;;20.85;54.80;100948.19;5092292;28;20023;-66
2023/08/31 11:10:24;;;;;;;6.63;3.00;;;;;;;20.54;56.92;100942.44;5115236;28;20498;-66
2023/08/31 11:12:52;;;;;;;8.70;3.33;;;;;;;20.27;56.69;100935.31;5115697;28;20108;-66
2023/08/31 11:15:22;;;;;;;10.60;3.10;;;;;;;20.11;59.48;100944.13;5113650;28;20543;-66
2023/08/31 11:17:53;;;;;;;6.32;2.97;;;;;;;19.91;57.79;100938.91;5111023;28;20048;-66